createdAt,value
2023-01-09T00:05:21.165Z,9.10
2023-01-09T00:12:03.734Z,9.10
2023-01-09T00:18:46.352Z,9.10
2023-01-09T00:25:28.663Z,9.10
2023-01-09T00:32:12.138Z,9.00
2023-01-09T00:38:54.512Z,9.00
2023-01-09T00:45:36.930Z,9.20
2023-01-09T00:52:20.260Z,9.30
2023-01-09T00:59:04.285Z,9.10
2023-01-09T01:06:05.084Z,9.10
2023-01-09T01:12:49.138Z,9.00
2023-01-09T01:19:31.544Z,9.00
2023-01-09T01:26:16.255Z,9.00
2023-01-09T01:32:58.710Z,9.10
2023-01-09T01:39:41.226Z,9.20
2023-01-09T01:46:23.641Z,9.20
2023-01-09T01:53:22.911Z,9.30
2023-01-09T02:00:06.871Z,9.40
2023-01-09T02:06:52.174Z,9.40
2023-01-09T02:13:38.914Z,9.40
2023-01-09T02:20:39.372Z,8.90
2023-01-09T02:27:50.980Z,9.50
2023-01-09T02:34:46.091Z,9.50
2023-01-09T02:41:45.747Z,9.40
2023-01-09T02:48:29.551Z,9.20
2023-01-09T02:55:22.576Z,9.30
2023-01-09T03:02:34.497Z,9.40
2023-01-09T03:09:20.470Z,9.30
2023-01-09T03:16:07.750Z,9.30
2023-01-09T03:23:02.223Z,9.30
2023-01-09T03:38:28.081Z,9.30
2023-01-09T03:45:10.801Z,9.20
2023-01-09T03:51:53.226Z,9.20
2023-01-09T03:58:35.637Z,9.20
2023-01-09T04:05:18.159Z,9.30
2023-01-09T04:12:00.537Z,9.30
2023-01-09T04:19:00.853Z,9.20
2023-01-09T04:25:44.107Z,9.00
2023-01-09T04:32:27.647Z,8.90
2023-01-09T04:39:10.197Z,8.70
2023-01-09T04:45:52.568Z,8.60
2023-01-09T04:52:34.875Z,8.40
2023-01-09T04:59:17.227Z,8.50
2023-01-09T05:05:59.710Z,8.40
2023-01-09T05:12:42.108Z,8.30
2023-01-09T05:19:24.578Z,8.30
2023-01-09T05:26:07.121Z,8.30
2023-01-09T05:32:49.591Z,8.30
2023-01-09T05:39:31.983Z,8.30
2023-01-09T05:46:14.310Z,8.30
2023-01-09T05:53:16.794Z,8.20
2023-01-09T05:59:59.359Z,7.90
2023-01-09T06:06:41.822Z,7.70
2023-01-09T06:13:24.202Z,7.50
2023-01-09T06:20:07.032Z,7.50
2023-01-09T06:26:49.346Z,7.50
2023-01-09T06:33:32.181Z,7.30
2023-01-09T06:40:14.898Z,7.10
2023-01-09T06:46:57.311Z,7.10
2023-01-09T06:53:39.722Z,7.00
2023-01-09T07:00:22.444Z,7.70
2023-01-09T07:07:04.861Z,7.00
2023-01-09T07:13:47.221Z,7.20
2023-01-09T07:20:29.719Z,7.30
2023-01-09T07:27:12.139Z,7.30
2023-01-09T07:33:54.620Z,7.40
2023-01-09T07:40:37.195Z,7.20
2023-01-09T07:47:19.539Z,7.20
2023-01-09T07:54:02.129Z,7.10
2023-01-09T08:00:44.572Z,7.30
2023-01-09T08:07:26.957Z,7.50
2023-01-09T08:14:09.354Z,7.70
2023-01-09T08:20:52.723Z,8.10
2023-01-09T08:27:35.035Z,9.40
2023-01-09T08:34:43.652Z,10.50
2023-01-09T08:41:44.596Z,10.50
2023-01-09T08:48:26.965Z,10.80
2023-01-09T08:55:09.539Z,11.50
2023-01-09T09:01:52.152Z,12.40
2023-01-09T09:08:35.078Z,13.40
2023-01-09T09:15:24.165Z,14.90
2023-01-09T09:22:07.878Z,15.40
2023-01-09T09:28:51.563Z,15.70
2023-01-09T09:35:34.222Z,16.80
2023-01-09T09:42:57.428Z,15.90
2023-01-09T09:50:03.849Z,16.40
2023-01-09T09:56:56.741Z,15.00
2023-01-09T10:03:49.324Z,13.60
2023-01-09T10:10:40.986Z,11.90
2023-01-09T10:17:47.817Z,11.40
2023-01-09T10:25:07.958Z,11.50
2023-01-09T10:32:13.961Z,11.60
2023-01-09T10:39:01.598Z,10.80
2023-01-09T10:45:50.927Z,10.70
2023-01-09T10:52:37.064Z,10.30
2023-01-09T10:59:19.453Z,10.90
2023-01-09T11:06:03.706Z,11.00
2023-01-09T11:12:47.534Z,10.70
2023-01-09T11:19:33.166Z,10.50
2023-01-09T11:26:27.840Z,10.60
2023-01-09T11:33:15.989Z,10.40
2023-01-09T11:40:00.734Z,10.60
2023-01-09T11:46:45.796Z,11.00
2023-01-09T11:54:26.312Z,11.70
2023-01-09T12:01:17.253Z,11.40
2023-01-09T12:08:25.387Z,11.40
2023-01-09T12:15:28.811Z,12.10
2023-01-09T12:22:59.881Z,12.60
2023-01-09T12:38:49.458Z,11.70
2023-01-09T17:57:37.729Z,7.30
2023-01-09T18:04:20.545Z,7.40
2023-01-09T18:11:08.312Z,7.40
2023-01-09T18:17:51.978Z,7.30
2023-01-09T18:24:34.579Z,7.40
2023-01-09T18:31:21.974Z,7.30
2023-01-09T18:38:04.523Z,7.70
2023-01-09T18:44:46.916Z,7.70
2023-01-09T18:51:30.111Z,7.50
2023-01-09T18:58:12.587Z,7.60
2023-01-09T19:04:55.106Z,7.60
2023-01-09T19:11:37.428Z,7.60
2023-01-09T19:18:19.738Z,7.50
2023-01-09T19:25:02.967Z,7.50
2023-01-09T19:31:46.664Z,7.60
2023-01-09T19:38:29.048Z,7.50
2023-01-09T19:45:11.515Z,7.50
2023-01-09T19:51:55.758Z,7.30
2023-01-09T19:58:38.657Z,7.30
2023-01-09T20:05:21.334Z,7.10
2023-01-09T20:12:05.276Z,6.90
2023-01-09T20:18:48.410Z,6.80
2023-01-09T20:25:30.737Z,6.80
2023-01-09T20:32:13.225Z,6.90
2023-01-09T20:38:58.355Z,6.90
2023-01-09T20:45:41.079Z,7.00
2023-01-09T20:52:23.623Z,7.00
2023-01-09T20:59:06.447Z,7.10
2023-01-09T21:05:48.845Z,6.90
2023-01-09T21:12:37.611Z,6.90
2023-01-09T21:19:20.062Z,6.30
2023-01-09T21:26:10.805Z,6.90
2023-01-09T21:32:53.263Z,7.00
2023-01-09T21:39:36.251Z,7.00
2023-01-09T21:46:37.815Z,7.10
2023-01-09T21:53:20.105Z,7.00
2023-01-09T22:00:03.193Z,7.00
2023-01-09T22:06:54.921Z,6.90
2023-01-09T22:13:37.219Z,6.80
2023-01-09T22:20:19.584Z,6.90
2023-01-09T22:27:01.949Z,6.70
2023-01-09T22:33:48.532Z,6.90
2023-01-09T22:40:32.010Z,7.10
2023-01-09T22:47:14.386Z,7.30
2023-01-09T22:53:56.725Z,7.40
2023-01-09T23:00:39.233Z,7.40
2023-01-09T23:07:21.572Z,7.40
2023-01-09T23:14:04.070Z,7.50
2023-01-09T23:20:52.539Z,7.50
2023-01-09T23:27:34.847Z,7.20
2023-01-09T23:34:19.757Z,7.20
2023-01-09T23:41:02.608Z,7.20
2023-01-09T23:47:44.958Z,7.30
2023-01-09T23:54:27.355Z,7.30
